sensor_id;sensor_type;location;lat;lon;timestamp;temperature;humidity
356;DHT22;62514;48.112;11.566;2023-09-19T00:01:06;15.90;35.00
356;DHT22;62514;48.112;11.566;2023-09-19T00:03:35;15.90;35.60
356;DHT22;62514;48.112;11.566;2023-09-19T00:06:04;15.90;35.40
356;DHT22;62514;48.112;11.566;2023-09-19T00:08:39;16.00;34.60
356;DHT22;62514;48.112;11.566;2023-09-19T00:11:06;16.00;34.70
356;DHT22;62514;48.112;11.566;2023-09-19T00:13:32;16.00;34.10
356;DHT22;62514;48.112;11.566;2023-09-19T00:15:59;16.00;33.90
356;DHT22;62514;48.112;11.566;2023-09-19T00:18:25;16.10;33.60
356;DHT22;62514;48.112;11.566;2023-09-19T00:21:01;16.10;33.40
356;DHT22;62514;48.112;11.566;2023-09-19T00:23:27;16.10;32.50
356;DHT22;62514;48.112;11.566;2023-09-19T00:25:53;16.10;32.00
356;DHT22;62514;48.112;11.566;2023-09-19T00:28:23;16.20;32.10
356;DHT22;62514;48.112;11.566;2023-09-19T00:30:48;16.30;32.10
356;DHT22;62514;48.112;11.566;2023-09-19T00:33:15;16.20;31.90
356;DHT22;62514;48.112;11.566;2023-09-19T00:35:54;16.30;32.10
356;DHT22;62514;48.112;11.566;2023-09-19T00:38:21;16.30;32.20
356;DHT22;62514;48.112;11.566;2023-09-19T00:40:50;16.30;32.10
356;DHT22;62514;48.112;11.566;2023-09-19T00:43:22;16.30;32.70
356;DHT22;62514;48.112;11.566;2023-09-19T00:45:51;16.30;32.30
356;DHT22;62514;48.112;11.566;2023-09-19T00:48:19;16.40;32.10
356;DHT22;62514;48.112;11.566;2023-09-19T00:50:47;16.40;32.30
356;DHT22;62514;48.112;11.566;2023-09-19T00:53:15;16.40;32.10
356;DHT22;62514;48.112;11.566;2023-09-19T00:55:44;16.30;32.10
356;DHT22;62514;48.112;11.566;2023-09-19T00:58:11;16.30;32.10
356;DHT22;62514;48.112;11.566;2023-09-19T01:00:37;16.30;32.00
356;DHT22;62514;48.112;11.566;2023-09-19T01:03:03;16.20;32.10
356;DHT22;62514;48.112;11.566;2023-09-19T01:05:33;16.20;32.30
356;DHT22;62514;48.112;11.566;2023-09-19T01:07:58;16.20;32.40
356;DHT22;62514;48.112;11.566;2023-09-19T01:10:24;16.10;33.00
356;DHT22;62514;48.112;11.566;2023-09-19T01:13:18;16.20;33.00
356;DHT22;62514;48.112;11.566;2023-09-19T01:16:08;16.10;34.30
356;DHT22;62514;48.112;11.566;2023-09-19T01:21:36;16.10;33.60
356;DHT22;62514;48.112;11.566;2023-09-19T01:29:49;16.10;32.90
356;DHT22;62514;48.112;11.566;2023-09-19T01:32:18;16.10;33.00
356;DHT22;62514;48.112;11.566;2023-09-19T01:34:56;16.10;33.00
356;DHT22;62514;48.112;11.566;2023-09-19T01:37:24;16.20;34.00
356;DHT22;62514;48.112;11.566;2023-09-19T01:40:03;16.20;34.10
356;DHT22;62514;48.112;11.566;2023-09-19T01:42:57;16.20;34.80
356;DHT22;62514;48.112;11.566;2023-09-19T01:47:54;16.20;35.70
356;DHT22;62514;48.112;11.566;2023-09-19T01:50:42;16.20;36.20
356;DHT22;62514;48.112;11.566;2023-09-19T01:53:35;16.20;36.50
356;DHT22;62514;48.112;11.566;2023-09-19T01:56:05;16.20;35.00
356;DHT22;62514;48.112;11.566;2023-09-19T01:58:34;16.20;34.10
356;DHT22;62514;48.112;11.566;2023-09-19T02:01:04;16.20;33.30
356;DHT22;62514;48.112;11.566;2023-09-19T02:03:35;16.20;32.40
356;DHT22;62514;48.112;11.566;2023-09-19T02:06:01;16.20;32.10
356;DHT22;62514;48.112;11.566;2023-09-19T02:08:29;16.20;32.10
356;DHT22;62514;48.112;11.566;2023-09-19T02:10:56;16.30;33.40
356;DHT22;62514;48.112;11.566;2023-09-19T02:13:23;16.30;32.70
356;DHT22;62514;48.112;11.566;2023-09-19T02:15:53;16.30;32.10
356;DHT22;62514;48.112;11.566;2023-09-19T02:18:19;16.30;32.60
356;DHT22;62514;48.112;11.566;2023-09-19T02:20:45;16.40;33.70
356;DHT22;62514;48.112;11.566;2023-09-19T02:23:12;16.40;34.30
356;DHT22;62514;48.112;11.566;2023-09-19T02:25:38;16.40;33.50
356;DHT22;62514;48.112;11.566;2023-09-19T02:28:04;16.40;34.10
356;DHT22;62514;48.112;11.566;2023-09-19T02:30:31;16.30;34.90
356;DHT22;62514;48.112;11.566;2023-09-19T02:32:57;16.30;34.00
356;DHT22;62514;48.112;11.566;2023-09-19T02:35:22;16.30;35.00
356;DHT22;62514;48.112;11.566;2023-09-19T02:37:48;16.20;35.50
356;DHT22;62514;48.112;11.566;2023-09-19T02:40:15;16.20;35.10
356;DHT22;62514;48.112;11.566;2023-09-19T02:42:55;16.10;35.70
356;DHT22;62514;48.112;11.566;2023-09-19T02:45:21;16.10;35.10
356;DHT22;62514;48.112;11.566;2023-09-19T02:47:49;16.10;34.80
356;DHT22;62514;48.112;11.566;2023-09-19T02:50:15;16.10;34.70
356;DHT22;62514;48.112;11.566;2023-09-19T02:52:44;16.10;33.60
356;DHT22;62514;48.112;11.566;2023-09-19T02:55:13;16.10;33.60
356;DHT22;62514;48.112;11.566;2023-09-19T02:57:53;16.00;33.30
356;DHT22;62514;48.112;11.566;2023-09-19T03:00:21;16.00;33.30
356;DHT22;62514;48.112;11.566;2023-09-19T03:02:48;16.00;33.80
356;DHT22;62514;48.112;11.566;2023-09-19T03:05:14;16.00;32.90
356;DHT22;62514;48.112;11.566;2023-09-19T03:07:39;15.90;32.40
356;DHT22;62514;48.112;11.566;2023-09-19T03:10:06;16.00;32.30
356;DHT22;62514;48.112;11.566;2023-09-19T03:12:33;16.00;34.40
356;DHT22;62514;48.112;11.566;2023-09-19T03:14:59;16.00;33.90
356;DHT22;62514;48.112;11.566;2023-09-19T03:17:25;15.90;32.00
356;DHT22;62514;48.112;11.566;2023-09-19T03:19:51;15.90;32.00
356;DHT22;62514;48.112;11.566;2023-09-19T03:22:16;15.90;32.90
356;DHT22;62514;48.112;11.566;2023-09-19T03:24:42;15.80;31.20
356;DHT22;62514;48.112;11.566;2023-09-19T03:27:09;15.80;31.60
356;DHT22;62514;48.112;11.566;2023-09-19T03:29:36;15.80;31.10
356;DHT22;62514;48.112;11.566;2023-09-19T03:32:01;15.90;30.30
356;DHT22;62514;48.112;11.566;2023-09-19T03:34:27;15.90;29.90
356;DHT22;62514;48.112;11.566;2023-09-19T03:36:53;15.90;29.20
356;DHT22;62514;48.112;11.566;2023-09-19T03:39:18;16.00;29.10
356;DHT22;62514;48.112;11.566;2023-09-19T03:41:44;16.00;27.90
356;DHT22;62514;48.112;11.566;2023-09-19T03:44:10;16.10;28.20
356;DHT22;62514;48.112;11.566;2023-09-19T03:46:36;16.10;28.00
356;DHT22;62514;48.112;11.566;2023-09-19T03:49:02;16.10;27.00
356;DHT22;62514;48.112;11.566;2023-09-19T03:51:28;16.20;26.90
356;DHT22;62514;48.112;11.566;2023-09-19T03:53:54;16.20;26.40
356;DHT22;62514;48.112;11.566;2023-09-19T03:56:19;16.30;26.50
356;DHT22;62514;48.112;11.566;2023-09-19T03:58:45;16.30;26.50
356;DHT22;62514;48.112;11.566;2023-09-19T04:01:10;16.30;25.80
356;DHT22;62514;48.112;11.566;2023-09-19T04:03:36;16.30;25.80
356;DHT22;62514;48.112;11.566;2023-09-19T04:06:13;16.40;26.10
356;DHT22;62514;48.112;11.566;2023-09-19T04:08:39;16.40;25.50
356;DHT22;62514;48.112;11.566;2023-09-19T04:11:04;16.40;26.10
356;DHT22;62514;48.112;11.566;2023-09-19T04:13:30;16.30;25.70
356;DHT22;62514;48.112;11.566;2023-09-19T04:15:56;16.40;25.60
356;DHT22;62514;48.112;11.566;2023-09-19T04:18:22;16.40;25.60
356;DHT22;62514;48.112;11.566;2023-09-19T04:20:49;16.40;25.50
356;DHT22;62514;48.112;11.566;2023-09-19T04:23:15;16.40;25.10
356;DHT22;62514;48.112;11.566;2023-09-19T04:25:41;16.40;24.10
356;DHT22;62514;48.112;11.566;2023-09-19T04:28:07;16.50;24.60
356;DHT22;62514;48.112;11.566;2023-09-19T04:30:32;16.50;24.60
356;DHT22;62514;48.112;11.566;2023-09-19T04:32:58;16.50;24.20
356;DHT22;62514;48.112;11.566;2023-09-19T04:35:27;16.50;23.70
356;DHT22;62514;48.112;11.566;2023-09-19T04:37:57;16.50;23.70
356;DHT22;62514;48.112;11.566;2023-09-19T04:40:23;16.60;23.90
356;DHT22;62514;48.112;11.566;2023-09-19T04:42:55;16.50;23.70
356;DHT22;62514;48.112;11.566;2023-09-19T04:45:26;16.50;23.70
356;DHT22;62514;48.112;11.566;2023-09-19T04:47:52;16.50;23.70
356;DHT22;62514;48.112;11.566;2023-09-19T04:50:19;16.50;23.70
356;DHT22;62514;48.112;11.566;2023-09-19T04:52:49;16.50;23.10
356;DHT22;62514;48.112;11.566;2023-09-19T04:55:17;16.50;22.70
356;DHT22;62514;48.112;11.566;2023-09-19T04:57:47;16.50;23.20
356;DHT22;62514;48.112;11.566;2023-09-19T05:00:18;16.50;23.30
356;DHT22;62514;48.112;11.566;2023-09-19T05:02:51;16.50;23.00
356;DHT22;62514;48.112;11.566;2023-09-19T05:05:17;16.50;22.90
356;DHT22;62514;48.112;11.566;2023-09-19T05:07:43;16.50;23.20
356;DHT22;62514;48.112;11.566;2023-09-19T05:10:13;16.50;22.90
356;DHT22;62514;48.112;11.566;2023-09-19T05:12:39;16.50;22.40
356;DHT22;62514;48.112;11.566;2023-09-19T05:15:06;16.50;22.20
356;DHT22;62514;48.112;11.566;2023-09-19T05:17:35;16.50;21.40
356;DHT22;62514;48.112;11.566;2023-09-19T05:20:01;16.50;22.20
356;DHT22;62514;48.112;11.566;2023-09-19T05:22:43;16.60;21.70
356;DHT22;62514;48.112;11.566;2023-09-19T05:25:11;16.60;20.80
356;DHT22;62514;48.112;11.566;2023-09-19T05:27:45;16.60;21.40
356;DHT22;62514;48.112;11.566;2023-09-19T05:30:11;16.60;21.30
356;DHT22;62514;48.112;11.566;2023-09-19T05:32:39;16.60;21.40
356;DHT22;62514;48.112;11.566;2023-09-19T05:35:05;16.60;21.20
356;DHT22;62514;48.112;11.566;2023-09-19T05:37:35;16.60;21.20
356;DHT22;62514;48.112;11.566;2023-09-19T05:40:02;16.60;21.50
356;DHT22;62514;48.112;11.566;2023-09-19T05:42:35;16.60;21.50
356;DHT22;62514;48.112;11.566;2023-09-19T05:45:00;16.60;21.20
356;DHT22;62514;48.112;11.566;2023-09-19T05:47:26;16.60;21.30
356;DHT22;62514;48.112;11.566;2023-09-19T05:49:52;16.60;21.50
356;DHT22;62514;48.112;11.566;2023-09-19T05:52:18;16.50;21.80
356;DHT22;62514;48.112;11.566;2023-09-19T05:54:44;16.50;21.70
356;DHT22;62514;48.112;11.566;2023-09-19T05:57:10;16.50;22.10
356;DHT22;62514;48.112;11.566;2023-09-19T05:59:37;16.50;22.40
356;DHT22;62514;48.112;11.566;2023-09-19T06:02:05;16.50;21.90
356;DHT22;62514;48.112;11.566;2023-09-19T06:04:32;16.50;22.20
356;DHT22;62514;48.112;11.566;2023-09-19T06:06:57;16.60;22.20
356;DHT22;62514;48.112;11.566;2023-09-19T06:09:23;16.60;21.40
356;DHT22;62514;48.112;11.566;2023-09-19T06:11:49;16.70;21.30
356;DHT22;62514;48.112;11.566;2023-09-19T06:14:15;16.80;21.00
356;DHT22;62514;48.112;11.566;2023-09-19T06:16:43;16.90;20.80
356;DHT22;62514;48.112;11.566;2023-09-19T06:19:08;17.00;20.80
356;DHT22;62514;48.112;11.566;2023-09-19T06:21:35;17.10;20.20
356;DHT22;62514;48.112;11.566;2023-09-19T06:24:02;17.10;19.60
356;DHT22;62514;48.112;11.566;2023-09-19T06:26:28;17.20;19.50
356;DHT22;62514;48.112;11.566;2023-09-19T06:28:55;17.20;18.60
356;DHT22;62514;48.112;11.566;2023-09-19T06:31:21;17.20;18.60
356;DHT22;62514;48.112;11.566;2023-09-19T06:33:48;17.30;19.50
356;DHT22;62514;48.112;11.566;2023-09-19T06:36:14;17.30;18.70
356;DHT22;62514;48.112;11.566;2023-09-19T06:38:40;17.40;19.20
356;DHT22;62514;48.112;11.566;2023-09-19T06:41:06;17.30;18.70
356;DHT22;62514;48.112;11.566;2023-09-19T06:43:35;17.40;18.70
356;DHT22;62514;48.112;11.566;2023-09-19T06:46:03;17.50;18.70
356;DHT22;62514;48.112;11.566;2023-09-19T06:48:29;17.50;18.70
356;DHT22;62514;48.112;11.566;2023-09-19T06:50:56;17.50;18.70
356;DHT22;62514;48.112;11.566;2023-09-19T06:53:24;17.60;18.70
356;DHT22;62514;48.112;11.566;2023-09-19T06:55:53;17.40;18.70
356;DHT22;62514;48.112;11.566;2023-09-19T06:58:19;17.30;18.70
356;DHT22;62514;48.112;11.566;2023-09-19T07:00:45;17.40;18.70
356;DHT22;62514;48.112;11.566;2023-09-19T07:03:13;17.40;18.70
356;DHT22;62514;48.112;11.566;2023-09-19T07:05:39;17.50;18.70
356;DHT22;62514;48.112;11.566;2023-09-19T07:08:06;17.60;18.70
356;DHT22;62514;48.112;11.566;2023-09-19T07:10:33;17.70;18.80
356;DHT22;62514;48.112;11.566;2023-09-19T07:13:00;17.70;18.00
356;DHT22;62514;48.112;11.566;2023-09-19T07:15:27;17.70;17.80
356;DHT22;62514;48.112;11.566;2023-09-19T07:17:54;17.60;18.70
356;DHT22;62514;48.112;11.566;2023-09-19T07:20:20;17.50;18.70
356;DHT22;62514;48.112;11.566;2023-09-19T07:22:46;17.60;18.70
356;DHT22;62514;48.112;11.566;2023-09-19T07:25:13;17.50;18.70
356;DHT22;62514;48.112;11.566;2023-09-19T07:27:41;17.50;18.70
356;DHT22;62514;48.112;11.566;2023-09-19T07:30:08;17.50;18.80
356;DHT22;62514;48.112;11.566;2023-09-19T07:32:34;17.60;18.70
356;DHT22;62514;48.112;11.566;2023-09-19T07:35:02;17.70;19.00
356;DHT22;62514;48.112;11.566;2023-09-19T07:37:30;17.80;18.80
356;DHT22;62514;48.112;11.566;2023-09-19T07:40:02;18.10;18.90
356;DHT22;62514;48.112;11.566;2023-09-19T07:42:33;18.30;18.30
356;DHT22;62514;48.112;11.566;2023-09-19T07:45:01;18.40;17.00
356;DHT22;62514;48.112;11.566;2023-09-19T07:47:27;18.40;16.80
356;DHT22;62514;48.112;11.566;2023-09-19T07:49:53;18.40;16.40
356;DHT22;62514;48.112;11.566;2023-09-19T07:52:20;18.30;16.70
356;DHT22;62514;48.112;11.566;2023-09-19T07:54:48;18.30;17.30
356;DHT22;62514;48.112;11.566;2023-09-19T07:57:15;18.40;17.10
356;DHT22;62514;48.112;11.566;2023-09-19T07:59:41;18.50;16.20
356;DHT22;62514;48.112;11.566;2023-09-19T08:02:10;18.50;16.20
356;DHT22;62514;48.112;11.566;2023-09-19T08:04:42;18.50;16.40
356;DHT22;62514;48.112;11.566;2023-09-19T08:07:08;18.60;16.50
356;DHT22;62514;48.112;11.566;2023-09-19T08:09:34;18.60;16.60
356;DHT22;62514;48.112;11.566;2023-09-19T08:12:00;18.70;15.60
356;DHT22;62514;48.112;11.566;2023-09-19T08:14:30;18.80;15.90
356;DHT22;62514;48.112;11.566;2023-09-19T08:16:57;18.70;16.00
356;DHT22;62514;48.112;11.566;2023-09-19T08:19:24;18.90;15.10
356;DHT22;62514;48.112;11.566;2023-09-19T08:21:55;18.90;14.50
356;DHT22;62514;48.112;11.566;2023-09-19T08:24:27;19.10;14.60
356;DHT22;62514;48.112;11.566;2023-09-19T08:26:54;19.10;14.60
356;DHT22;62514;48.112;11.566;2023-09-19T08:29:21;19.30;14.70
356;DHT22;62514;48.112;11.566;2023-09-19T08:31:47;19.50;13.90
356;DHT22;62514;48.112;11.566;2023-09-19T08:34:15;19.30;13.60
356;DHT22;62514;48.112;11.566;2023-09-19T08:36:41;19.20;13.80
356;DHT22;62514;48.112;11.566;2023-09-19T08:39:09;19.20;13.70
356;DHT22;62514;48.112;11.566;2023-09-19T08:41:34;19.30;13.80
356;DHT22;62514;48.112;11.566;2023-09-19T08:44:00;19.40;12.40
356;DHT22;62514;48.112;11.566;2023-09-19T08:46:30;19.50;12.20
356;DHT22;62514;48.112;11.566;2023-09-19T08:49:13;19.60;11.50
356;DHT22;62514;48.112;11.566;2023-09-19T08:51:45;19.70;11.00
356;DHT22;62514;48.112;11.566;2023-09-19T08:54:25;19.50;10.60
356;DHT22;62514;48.112;11.566;2023-09-19T08:56:55;19.50;11.70
356;DHT22;62514;48.112;11.566;2023-09-19T08:59:22;19.70;11.20
356;DHT22;62514;48.112;11.566;2023-09-19T09:01:53;19.90;10.10
356;DHT22;62514;48.112;11.566;2023-09-19T09:04:22;19.90;9.50
356;DHT22;62514;48.112;11.566;2023-09-19T09:06:49;19.90;9.70
356;DHT22;62514;48.112;11.566;2023-09-19T09:09:17;19.90;9.90
356;DHT22;62514;48.112;11.566;2023-09-19T09:11:42;20.00;10.10
356;DHT22;62514;48.112;11.566;2023-09-19T09:14:08;19.90;10.10
356;DHT22;62514;48.112;11.566;2023-09-19T09:16:34;19.90;10.10
356;DHT22;62514;48.112;11.566;2023-09-19T09:19:00;20.00;10.10
356;DHT22;62514;48.112;11.566;2023-09-19T09:21:27;20.00;9.60
356;DHT22;62514;48.112;11.566;2023-09-19T09:23:54;19.90;8.50
356;DHT22;62514;48.112;11.566;2023-09-19T09:29:04;19.60;7.50
356;DHT22;62514;48.112;11.566;2023-09-19T09:31:30;19.60;7.70
356;DHT22;62514;48.112;11.566;2023-09-19T09:33:57;19.70;7.70
356;DHT22;62514;48.112;11.566;2023-09-19T09:36:37;20.00;7.90
356;DHT22;62514;48.112;11.566;2023-09-19T09:39:04;20.40;6.10
356;DHT22;62514;48.112;11.566;2023-09-19T09:41:50;20.40;4.40
356;DHT22;62514;48.112;11.566;2023-09-19T09:44:17;20.50;4.50
356;DHT22;62514;48.112;11.566;2023-09-19T09:46:46;20.60;3.90
356;DHT22;62514;48.112;11.566;2023-09-19T09:49:24;20.50;4.40
356;DHT22;62514;48.112;11.566;2023-09-19T09:52:01;20.60;4.50
356;DHT22;62514;48.112;11.566;2023-09-19T09:54:31;20.40;4.30
356;DHT22;62514;48.112;11.566;2023-09-19T09:57:04;20.20;5.20
356;DHT22;62514;48.112;11.566;2023-09-19T09:59:59;20.10;5.20
356;DHT22;62514;48.112;11.566;2023-09-19T10:02:37;20.20;5.20
356;DHT22;62514;48.112;11.566;2023-09-19T10:05:32;20.50;5.40
356;DHT22;62514;48.112;11.566;2023-09-19T10:08:12;20.90;4.20
356;DHT22;62514;48.112;11.566;2023-09-19T10:10:41;21.20;2.80
356;DHT22;62514;48.112;11.566;2023-09-19T10:13:09;21.30;1.20
356;DHT22;62514;48.112;11.566;2023-09-19T10:18:26;21.50;1.00
356;DHT22;62514;48.112;11.566;2023-09-19T10:20:53;21.60;1.00
356;DHT22;62514;48.112;11.566;2023-09-19T10:23:21;21.30;1.00
356;DHT22;62514;48.112;11.566;2023-09-19T10:25:52;21.10;1.50
356;DHT22;62514;48.112;11.566;2023-09-19T10:28:19;21.60;1.00
356;DHT22;62514;48.112;11.566;2023-09-19T10:30:53;22.10;1.00
356;DHT22;62514;48.112;11.566;2023-09-19T10:33:24;22.60;1.00
356;DHT22;62514;48.112;11.566;2023-09-19T10:35:51;23.10;1.00
356;DHT22;62514;48.112;11.566;2023-09-19T10:38:18;23.30;1.00
356;DHT22;62514;48.112;11.566;2023-09-19T10:40:52;23.20;1.00
356;DHT22;62514;48.112;11.566;2023-09-19T10:43:20;23.60;1.00
356;DHT22;62514;48.112;11.566;2023-09-19T10:45:48;23.60;1.00
356;DHT22;62514;48.112;11.566;2023-09-19T10:48:16;23.50;1.00
356;DHT22;62514;48.112;11.566;2023-09-19T10:50:53;23.60;1.00
356;DHT22;62514;48.112;11.566;2023-09-19T10:53:21;23.50;1.00
356;DHT22;62514;48.112;11.566;2023-09-19T10:55:52;23.40;1.00
356;DHT22;62514;48.112;11.566;2023-09-19T10:58:27;24.00;1.00
356;DHT22;62514;48.112;11.566;2023-09-19T11:00:56;24.40;1.00
356;DHT22;62514;48.112;11.566;2023-09-19T11:03:23;24.90;1.00
356;DHT22;62514;48.112;11.566;2023-09-19T11:06:06;25.10;1.00
356;DHT22;62514;48.112;11.566;2023-09-19T11:30:50;24.90;1.00
356;DHT22;62514;48.112;11.566;2023-09-19T11:33:25;25.20;1.00
356;DHT22;62514;48.112;11.566;2023-09-19T11:36:13;25.50;1.00
356;DHT22;62514;48.112;11.566;2023-09-19T11:43:52;25.50;1.00
356;DHT22;62514;48.112;11.566;2023-09-19T11:46:20;24.20;1.00
356;DHT22;62514;48.112;11.566;2023-09-19T11:48:50;24.40;1.00
356;DHT22;62514;48.112;11.566;2023-09-19T11:51:23;24.40;1.00
356;DHT22;62514;48.112;11.566;2023-09-19T11:53:56;24.20;1.00
356;DHT22;62514;48.112;11.566;2023-09-19T11:56:23;24.20;1.00
356;DHT22;62514;48.112;11.566;2023-09-19T11:58:54;23.30;1.00
356;DHT22;62514;48.112;11.566;2023-09-19T12:01:42;23.70;1.00
356;DHT22;62514;48.112;11.566;2023-09-19T12:04:12;23.70;1.00
356;DHT22;62514;48.112;11.566;2023-09-19T12:06:40;24.40;1.00
356;DHT22;62514;48.112;11.566;2023-09-19T12:09:12;24.90;1.00
356;DHT22;62514;48.112;11.566;2023-09-19T12:11:42;24.80;1.00
356;DHT22;62514;48.112;11.566;2023-09-19T12:14:11;24.70;1.00
356;DHT22;62514;48.112;11.566;2023-09-19T12:16:37;25.10;1.00
356;DHT22;62514;48.112;11.566;2023-09-19T12:19:20;25.70;1.00
356;DHT22;62514;48.112;11.566;2023-09-19T12:22:03;25.10;1.00
356;DHT22;62514;48.112;11.566;2023-09-19T12:24:34;25.20;1.00
356;DHT22;62514;48.112;11.566;2023-09-19T12:27:07;25.50;1.00
356;DHT22;62514;48.112;11.566;2023-09-19T12:32:08;24.60;1.00
356;DHT22;62514;48.112;11.566;2023-09-19T12:34:34;24.40;1.00
356;DHT22;62514;48.112;11.566;2023-09-19T12:37:04;24.90;1.00
356;DHT22;62514;48.112;11.566;2023-09-19T12:39:38;25.50;1.00
356;DHT22;62514;48.112;11.566;2023-09-19T12:42:04;25.10;1.00
356;DHT22;62514;48.112;11.566;2023-09-19T12:44:36;25.30;1.00
356;DHT22;62514;48.112;11.566;2023-09-19T12:47:15;25.80;1.00
356;DHT22;62514;48.112;11.566;2023-09-19T12:50:14;25.80;1.00
356;DHT22;62514;48.112;11.566;2023-09-19T12:52:49;26.10;1.00
356;DHT22;62514;48.112;11.566;2023-09-19T12:55:28;26.10;1.00
356;DHT22;62514;48.112;11.566;2023-09-19T13:00:37;26.60;1.00
356;DHT22;62514;48.112;11.566;2023-09-19T13:08:24;26.90;1.00
356;DHT22;62514;48.112;11.566;2023-09-19T13:16:10;27.40;1.00
356;DHT22;62514;48.112;11.566;2023-09-19T13:18:47;27.70;1.00
356;DHT22;62514;48.112;11.566;2023-09-19T13:21:16;27.30;1.00
356;DHT22;62514;48.112;11.566;2023-09-19T13:23:50;27.80;1.00
356;DHT22;62514;48.112;11.566;2023-09-19T13:26:16;28.20;1.00
356;DHT22;62514;48.112;11.566;2023-09-19T13:28:41;27.30;1.00
356;DHT22;62514;48.112;11.566;2023-09-19T13:31:07;27.50;1.00
356;DHT22;62514;48.112;11.566;2023-09-19T13:33:43;26.70;1.00
356;DHT22;62514;48.112;11.566;2023-09-19T13:36:08;26.20;1.00
356;DHT22;62514;48.112;11.566;2023-09-19T13:38:35;25.90;1.00
356;DHT22;62514;48.112;11.566;2023-09-19T13:41:00;25.90;1.00
356;DHT22;62514;48.112;11.566;2023-09-19T13:43:27;26.50;1.00
356;DHT22;62514;48.112;11.566;2023-09-19T13:45:54;26.40;1.00
356;DHT22;62514;48.112;11.566;2023-09-19T13:48:20;26.80;1.00
356;DHT22;62514;48.112;11.566;2023-09-19T13:50:48;26.80;1.00
356;DHT22;62514;48.112;11.566;2023-09-19T13:53:14;26.80;1.00
356;DHT22;62514;48.112;11.566;2023-09-19T13:55:40;26.30;1.00
356;DHT22;62514;48.112;11.566;2023-09-19T13:58:06;26.60;1.00
356;DHT22;62514;48.112;11.566;2023-09-19T14:00:33;27.10;1.00
356;DHT22;62514;48.112;11.566;2023-09-19T14:03:03;27.00;1.00
356;DHT22;62514;48.112;11.566;2023-09-19T14:05:29;26.00;1.00
356;DHT22;62514;48.112;11.566;2023-09-19T14:07:56;24.70;1.00
356;DHT22;62514;48.112;11.566;2023-09-19T14:10:25;24.50;1.00
356;DHT22;62514;48.112;11.566;2023-09-19T14:12:52;23.80;1.00
356;DHT22;62514;48.112;11.566;2023-09-19T14:15:18;23.10;1.00
356;DHT22;62514;48.112;11.566;2023-09-19T14:17:43;23.20;1.00
356;DHT22;62514;48.112;11.566;2023-09-19T14:20:12;23.10;1.00
356;DHT22;62514;48.112;11.566;2023-09-19T14:22:38;23.00;1.00
356;DHT22;62514;48.112;11.566;2023-09-19T14:25:04;22.80;1.00
356;DHT22;62514;48.112;11.566;2023-09-19T14:27:30;22.90;1.00
356;DHT22;62514;48.112;11.566;2023-09-19T14:29:56;22.60;1.00
356;DHT22;62514;48.112;11.566;2023-09-19T14:32:23;22.60;1.00
356;DHT22;62514;48.112;11.566;2023-09-19T14:34:49;22.80;1.00
356;DHT22;62514;48.112;11.566;2023-09-19T14:37:15;22.90;1.00
356;DHT22;62514;48.112;11.566;2023-09-19T14:39:42;22.80;1.00
356;DHT22;62514;48.112;11.566;2023-09-19T14:42:10;22.90;1.00
356;DHT22;62514;48.112;11.566;2023-09-19T14:44:36;22.60;1.00
356;DHT22;62514;48.112;11.566;2023-09-19T14:47:03;22.70;1.00
356;DHT22;62514;48.112;11.566;2023-09-19T14:49:35;22.40;1.00
356;DHT22;62514;48.112;11.566;2023-09-19T14:52:09;22.30;1.00
356;DHT22;62514;48.112;11.566;2023-09-19T14:54:36;22.40;1.00
356;DHT22;62514;48.112;11.566;2023-09-19T14:57:03;22.40;1.00
356;DHT22;62514;48.112;11.566;2023-09-19T14:59:33;22.20;1.00
356;DHT22;62514;48.112;11.566;2023-09-19T15:02:06;22.30;1.00
356;DHT22;62514;48.112;11.566;2023-09-19T15:04:32;22.30;1.00
356;DHT22;62514;48.112;11.566;2023-09-19T15:06:59;22.30;1.00
356;DHT22;62514;48.112;11.566;2023-09-19T15:09:25;22.20;1.00
356;DHT22;62514;48.112;11.566;2023-09-19T15:11:55;22.30;1.00
356;DHT22;62514;48.112;11.566;2023-09-19T15:14:21;22.20;1.00
356;DHT22;62514;48.112;11.566;2023-09-19T15:16:48;22.00;1.00
356;DHT22;62514;48.112;11.566;2023-09-19T15:19:14;21.80;1.00
356;DHT22;62514;48.112;11.566;2023-09-19T15:21:40;21.60;1.00
356;DHT22;62514;48.112;11.566;2023-09-19T15:24:06;21.70;1.00
356;DHT22;62514;48.112;11.566;2023-09-19T15:26:36;21.80;1.00
356;DHT22;62514;48.112;11.566;2023-09-19T15:29:08;21.80;1.00
356;DHT22;62514;48.112;11.566;2023-09-19T15:31:35;21.70;1.00
356;DHT22;62514;48.112;11.566;2023-09-19T15:34:04;21.60;1.00
356;DHT22;62514;48.112;11.566;2023-09-19T15:36:31;21.70;1.00
356;DHT22;62514;48.112;11.566;2023-09-19T15:39:03;21.80;1.00
356;DHT22;62514;48.112;11.566;2023-09-19T15:41:39;21.80;1.00
356;DHT22;62514;48.112;11.566;2023-09-19T15:44:14;21.80;1.00
356;DHT22;62514;48.112;11.566;2023-09-19T15:46:41;21.90;1.00
356;DHT22;62514;48.112;11.566;2023-09-19T15:49:06;21.90;1.00
356;DHT22;62514;48.112;11.566;2023-09-19T15:51:33;21.90;1.00
356;DHT22;62514;48.112;11.566;2023-09-19T15:54:02;21.80;1.00
356;DHT22;62514;48.112;11.566;2023-09-19T15:56:33;21.70;1.00
356;DHT22;62514;48.112;11.566;2023-09-19T15:59:00;21.70;1.00
356;DHT22;62514;48.112;11.566;2023-09-19T16:01:26;21.60;1.00
356;DHT22;62514;48.112;11.566;2023-09-19T16:03:53;21.60;1.00
356;DHT22;62514;48.112;11.566;2023-09-19T16:06:22;21.60;1.00
356;DHT22;62514;48.112;11.566;2023-09-19T16:08:51;21.60;1.00
356;DHT22;62514;48.112;11.566;2023-09-19T16:11:17;21.60;1.00
356;DHT22;62514;48.112;11.566;2023-09-19T16:13:43;21.50;1.00
356;DHT22;62514;48.112;11.566;2023-09-19T16:16:14;21.50;1.00
356;DHT22;62514;48.112;11.566;2023-09-19T16:18:55;21.40;1.00
356;DHT22;62514;48.112;11.566;2023-09-19T16:21:27;21.30;1.00
356;DHT22;62514;48.112;11.566;2023-09-19T16:23:54;21.30;1.00
356;DHT22;62514;48.112;11.566;2023-09-19T16:26:20;21.20;1.00
356;DHT22;62514;48.112;11.566;2023-09-19T16:28:47;21.20;1.00
356;DHT22;62514;48.112;11.566;2023-09-19T16:31:14;21.10;1.00
356;DHT22;62514;48.112;11.566;2023-09-19T16:33:44;21.10;1.00
356;DHT22;62514;48.112;11.566;2023-09-19T16:36:11;20.80;1.00
356;DHT22;62514;48.112;11.566;2023-09-19T16:38:38;20.80;1.00
356;DHT22;62514;48.112;11.566;2023-09-19T16:41:05;20.90;1.00
356;DHT22;62514;48.112;11.566;2023-09-19T16:43:31;20.70;1.00
356;DHT22;62514;48.112;11.566;2023-09-19T16:46:02;20.70;1.00
356;DHT22;62514;48.112;11.566;2023-09-19T16:48:29;20.80;1.00
356;DHT22;62514;48.112;11.566;2023-09-19T16:50:59;20.80;1.00
356;DHT22;62514;48.112;11.566;2023-09-19T16:53:25;20.70;1.00
356;DHT22;62514;48.112;11.566;2023-09-19T16:55:51;20.70;1.00
356;DHT22;62514;48.112;11.566;2023-09-19T16:58:17;20.70;1.00
356;DHT22;62514;48.112;11.566;2023-09-19T17:00:44;20.70;1.00
356;DHT22;62514;48.112;11.566;2023-09-19T17:03:11;20.50;1.00